createdAt,value
2022-09-12T06:44:53.296Z,6.30
2022-09-12T07:00:19.033Z,5.50
2022-09-12T07:02:50.658Z,5.10
2022-09-12T07:05:21.915Z,4.63
2022-09-12T07:08:04.221Z,4.50
2022-09-12T07:10:36.553Z,6.17
2022-09-12T07:13:05.155Z,5.27
2022-09-12T07:15:37.843Z,5.33
2022-09-12T07:18:11.408Z,6.00
2022-09-12T07:20:43.397Z,6.40
2022-09-12T07:23:17.987Z,6.00
2022-09-12T07:25:57.849Z,7.00
2022-09-12T07:28:45.916Z,6.50
2022-09-12T07:31:35.234Z,7.30
2022-09-12T07:37:04.060Z,7.03
2022-09-12T07:39:32.537Z,7.07
2022-09-12T07:42:02.395Z,6.40
2022-09-12T07:44:32.105Z,6.10
2022-09-12T07:47:16.732Z,6.03
2022-09-12T07:49:45.849Z,6.67
2022-09-12T07:52:15.388Z,5.83
2022-09-12T07:54:45.789Z,5.70
2022-09-12T07:57:28.765Z,7.70
2022-09-12T07:59:58.926Z,6.87
2022-09-12T08:02:39.453Z,6.23
2022-09-12T08:05:20.926Z,5.57
2022-09-12T08:07:55.813Z,6.87
2022-09-12T08:10:38.159Z,6.67
2022-09-12T08:13:09.400Z,6.00
2022-09-12T08:15:46.806Z,5.83
2022-09-12T08:18:21.622Z,5.93
2022-09-12T08:20:50.082Z,6.47
2022-09-12T08:23:21.324Z,6.43
2022-09-12T08:25:53.083Z,5.37
2022-09-12T08:28:24.437Z,5.90
2022-09-12T08:30:52.918Z,5.47
2022-09-12T08:33:22.932Z,5.23
2022-09-12T08:35:51.579Z,4.43
2022-09-12T08:38:20.011Z,4.17
2022-09-12T08:40:54.805Z,3.43
2022-09-12T08:43:33.614Z,3.87
2022-09-12T08:46:06.546Z,4.00
2022-09-12T08:48:36.685Z,4.03
2022-09-12T08:51:06.191Z,4.20
2022-09-12T08:53:37.439Z,4.20
2022-09-12T08:56:08.691Z,3.97
2022-09-12T08:58:41.950Z,3.70
2022-09-12T09:01:15.570Z,4.50
2022-09-12T09:04:10.921Z,2.93
2022-09-12T09:07:07.206Z,3.07
2022-09-12T09:09:45.778Z,3.07
2022-09-12T09:12:18.752Z,3.63
2022-09-12T09:15:14.989Z,3.43
2022-09-12T09:17:44.948Z,3.50
2022-09-12T09:20:22.422Z,3.93
2022-09-12T09:22:53.578Z,3.50
2022-09-12T09:25:25.193Z,3.30
2022-09-12T09:27:59.327Z,4.50
2022-09-12T09:30:28.961Z,5.00
2022-09-12T09:33:00.146Z,4.27
2022-09-12T09:35:39.104Z,3.70
2022-09-12T09:38:20.103Z,3.10
2022-09-12T09:40:55.388Z,3.03
2022-09-12T09:43:24.696Z,2.93
2022-09-12T09:45:54.357Z,2.63
2022-09-12T09:48:32.143Z,2.87
2022-09-12T09:51:04.044Z,3.10
2022-09-12T09:53:40.944Z,3.20
2022-09-12T09:56:15.524Z,2.33
2022-09-12T09:58:55.065Z,3.13
2022-09-12T10:01:41.678Z,2.83
2022-09-12T10:04:24.455Z,2.90
2022-09-12T10:06:56.628Z,2.80
2022-09-12T10:09:34.319Z,2.80
2022-09-12T10:12:36.652Z,2.80
2022-09-12T10:15:21.946Z,3.40
2022-09-12T10:17:51.949Z,4.40
2022-09-12T10:20:39.225Z,4.27
2022-09-12T10:23:37.942Z,4.10
2022-09-12T10:26:23.611Z,4.23
2022-09-12T10:29:27.073Z,3.70
2022-09-12T10:32:52.636Z,3.93
2022-09-12T10:35:53.931Z,3.97
2022-09-12T10:39:05.601Z,4.00
2022-09-12T10:41:57.631Z,4.33
2022-09-12T10:44:51.618Z,5.37
2022-09-12T10:50:33.523Z,7.67
2022-09-12T10:53:34.339Z,5.73
2022-09-12T10:56:33.712Z,4.90
2022-09-12T10:59:25.059Z,4.97
2022-09-12T11:02:04.448Z,4.57
2022-09-12T11:11:33.605Z,5.47
2022-09-12T11:14:15.919Z,4.30
2022-09-12T11:17:01.157Z,4.67
2022-09-12T11:19:56.387Z,4.33
2022-09-12T11:22:56.172Z,4.00
2022-09-12T11:25:33.324Z,5.33
2022-09-12T11:28:45.362Z,6.30
2022-09-12T11:32:17.050Z,6.43
2022-09-12T11:35:02.814Z,5.70
2022-09-12T11:37:47.704Z,7.20
2022-09-12T11:40:33.731Z,7.77
2022-09-12T11:43:11.962Z,7.37
2022-09-12T11:46:02.772Z,7.20
2022-09-12T11:51:56.782Z,6.53
2022-09-12T11:57:37.746Z,6.43
2022-09-12T12:00:10.422Z,5.57
2022-09-12T12:05:46.353Z,5.43
2022-09-12T12:08:16.207Z,4.90
2022-09-12T12:10:46.978Z,4.67
2022-09-12T12:13:20.866Z,4.93
2022-09-12T12:15:50.886Z,5.10
2022-09-12T12:18:20.903Z,4.73
2022-09-12T12:20:49.480Z,5.10
2022-09-12T12:24:04.042Z,4.50
2022-09-12T12:27:00.583Z,5.43
2022-09-12T12:29:43.840Z,5.33
2022-09-12T12:32:24.299Z,5.67
2022-09-12T12:35:18.694Z,5.20
2022-09-12T12:37:56.131Z,5.73
2022-09-12T12:40:29.507Z,5.63
2022-09-12T12:43:06.335Z,4.80
2022-09-12T12:46:12.430Z,4.40
2022-09-12T12:48:51.690Z,4.90
2022-09-12T12:51:49.589Z,4.70
2022-09-12T12:54:33.910Z,4.40
2022-09-12T12:57:22.008Z,5.77
2022-09-12T12:59:53.685Z,3.67
2022-09-12T13:02:30.459Z,3.70
2022-09-12T13:05:00.996Z,4.13
2022-09-12T13:07:34.629Z,3.30
2022-09-12T13:10:05.950Z,3.47
2022-09-12T13:12:38.325Z,3.67
2022-09-12T13:15:43.498Z,4.37
2022-09-12T13:18:14.100Z,4.97
2022-09-12T13:20:49.820Z,4.80
2022-09-12T13:23:26.355Z,5.10
2022-09-12T13:25:56.183Z,4.90
2022-09-12T13:28:27.763Z,4.73
2022-09-12T13:31:05.179Z,5.30
2022-09-12T13:33:38.075Z,4.70
2022-09-12T13:36:23.834Z,4.53
2022-09-12T13:39:03.598Z,4.47
2022-09-12T13:41:42.802Z,4.30
2022-09-12T13:44:15.245Z,5.10
2022-09-12T13:46:44.329Z,4.27
2022-09-12T13:49:24.126Z,3.93
2022-09-12T13:52:01.670Z,5.33
2022-09-12T13:54:30.790Z,6.20
2022-09-12T13:56:59.957Z,4.77
2022-09-12T13:59:30.047Z,3.27
2022-09-12T14:01:58.748Z,3.57
2022-09-12T14:04:49.982Z,2.60
2022-09-12T14:07:23.367Z,2.70
2022-09-12T14:10:01.236Z,2.90
2022-09-12T14:12:34.853Z,2.80
2022-09-12T14:15:09.757Z,2.60
2022-09-12T14:17:40.261Z,2.13
2022-09-12T14:20:13.685Z,2.50
2022-09-12T14:22:42.922Z,2.10
2022-09-12T14:25:16.304Z,2.83
2022-09-12T14:27:47.935Z,2.37
2022-09-12T14:30:25.715Z,3.63
2022-09-12T14:33:17.744Z,2.73
2022-09-12T14:35:47.630Z,2.77
2022-09-12T14:38:25.986Z,3.10
2022-09-12T14:41:01.171Z,3.27
2022-09-12T14:43:31.325Z,3.23
2022-09-12T14:46:03.237Z,2.17
2022-09-12T14:48:33.751Z,2.83
2022-09-12T14:51:02.682Z,2.53
2022-09-12T14:53:35.825Z,2.90
2022-09-12T14:56:12.224Z,2.60
2022-09-12T14:58:41.295Z,3.10
2022-09-12T15:01:28.415Z,2.90
2022-09-12T15:03:59.932Z,2.17
2022-09-12T15:06:31.241Z,2.83
2022-09-12T15:09:04.156Z,2.87
2022-09-12T15:11:34.172Z,2.77
2022-09-12T15:14:13.157Z,3.37
2022-09-12T15:16:46.028Z,4.60
2022-09-12T15:19:15.329Z,3.30
2022-09-12T15:21:43.812Z,3.10
2022-09-12T15:24:12.515Z,3.73
2022-09-12T15:26:40.880Z,3.40
2022-09-12T15:29:09.133Z,32.50
2022-09-12T15:31:37.446Z,23.03
2022-09-12T15:34:08.373Z,5.73
2022-09-12T15:36:37.138Z,4.93
2022-09-12T15:39:06.143Z,4.53
2022-09-12T15:41:37.088Z,3.97
2022-09-12T15:44:06.313Z,3.10
2022-09-12T15:46:34.967Z,3.23
2022-09-12T15:49:03.755Z,3.90
2022-09-12T15:51:34.299Z,4.43
2022-09-12T15:54:06.420Z,3.13
2022-09-12T15:56:35.118Z,2.97
2022-09-12T15:59:03.713Z,3.23
2022-09-12T16:01:32.120Z,5.70
2022-09-12T16:04:01.292Z,4.60
2022-09-12T16:06:37.283Z,3.80
2022-09-12T16:09:07.752Z,3.57
2022-09-12T16:11:37.844Z,3.57
2022-09-12T16:14:06.829Z,2.77
2022-09-12T16:16:35.719Z,3.53
2022-09-12T16:19:04.958Z,5.10
2022-09-12T16:21:35.071Z,4.33
2022-09-12T16:24:03.677Z,4.77
2022-09-12T16:26:32.519Z,3.90
2022-09-12T16:29:02.246Z,4.03
2022-09-12T16:31:31.109Z,3.90
2022-09-12T16:33:59.662Z,3.30
2022-09-12T16:36:28.197Z,3.60
2022-09-12T16:39:00.952Z,4.13
2022-09-12T16:41:29.915Z,4.60
2022-09-12T16:43:58.542Z,4.57
2022-09-12T16:46:29.969Z,5.40
2022-09-12T16:48:59.563Z,6.20
2022-09-12T16:51:30.187Z,5.67
2022-09-12T16:53:59.044Z,4.00
2022-09-12T16:56:29.797Z,3.50
2022-09-12T16:58:57.957Z,4.40
2022-09-12T17:01:27.429Z,7.70
2022-09-12T17:03:57.183Z,27.20
2022-09-12T17:06:27.214Z,26.30
2022-09-12T17:08:57.014Z,21.80
2022-09-12T17:11:26.760Z,10.50
2022-09-12T17:14:04.882Z,5.53
2022-09-12T17:16:34.361Z,5.40
2022-09-12T17:19:02.642Z,3.57
2022-09-12T17:21:31.134Z,3.90
2022-09-12T17:24:00.876Z,4.80
2022-09-12T17:26:29.543Z,3.90
2022-09-12T17:28:59.743Z,4.70
2022-09-12T17:31:41.828Z,4.47
2022-09-12T17:34:14.404Z,5.00
2022-09-12T17:36:44.364Z,4.57
2022-09-12T17:39:13.903Z,4.00
2022-09-12T17:41:44.179Z,4.20
2022-09-12T17:44:18.311Z,4.20
2022-09-12T17:46:48.921Z,3.63
2022-09-12T17:49:22.104Z,4.20
2022-09-12T17:51:56.833Z,3.90
2022-09-12T17:54:27.819Z,4.00
2022-09-12T17:56:56.506Z,3.90
2022-09-12T17:59:26.731Z,4.70
2022-09-12T18:02:14.904Z,4.00
2022-09-12T18:07:39.898Z,9.80
2022-09-12T18:10:19.881Z,11.10
2022-09-12T18:12:50.982Z,10.07
2022-09-12T18:15:21.166Z,9.20
2022-09-12T18:17:49.959Z,7.23
2022-09-12T18:20:19.797Z,6.80
2022-09-12T18:22:51.744Z,6.93
2022-09-12T18:25:20.206Z,5.20
2022-09-12T18:27:51.800Z,4.40
2022-09-12T18:30:23.515Z,3.93
2022-09-12T18:32:52.063Z,6.30
2022-09-12T18:35:30.292Z,9.00
2022-09-12T18:37:58.994Z,6.07
2022-09-12T18:40:27.938Z,3.80
2022-09-12T18:42:59.208Z,4.27
2022-09-12T18:45:35.056Z,4.53
2022-09-12T18:48:06.755Z,4.47
2022-09-12T18:50:45.480Z,4.10
2022-09-12T18:53:15.692Z,3.83
2022-09-12T18:55:45.565Z,4.70
2022-09-12T18:58:14.482Z,4.00
2022-09-12T19:00:48.612Z,5.00
2022-09-12T19:03:19.536Z,3.57
2022-09-12T19:05:51.105Z,3.50
2022-09-12T19:08:20.048Z,4.10
2022-09-12T19:10:56.949Z,3.70
2022-09-12T19:13:25.903Z,3.30
2022-09-12T19:15:55.866Z,4.70
2022-09-12T19:18:24.814Z,4.40
2022-09-12T19:21:08.662Z,4.73
2022-09-12T19:23:37.926Z,4.93
2022-09-12T19:26:09.371Z,4.70
2022-09-12T19:28:40.518Z,4.97
2022-09-12T19:31:13.129Z,5.20
2022-09-12T19:33:47.242Z,4.13
2022-09-12T19:36:41.259Z,5.37
2022-09-12T19:39:09.003Z,4.00
2022-09-12T19:41:39.377Z,4.20
2022-09-12T19:44:09.500Z,3.57
2022-09-12T19:46:43.854Z,4.60
2022-09-12T19:49:13.258Z,3.83
2022-09-12T19:51:42.571Z,4.17
2022-09-12T19:54:11.843Z,3.40
2022-09-12T19:56:43.318Z,4.70
2022-09-12T19:59:12.526Z,3.17
2022-09-12T20:01:43.301Z,4.17
2022-09-12T20:04:12.860Z,4.00
2022-09-12T20:06:41.456Z,4.17
2022-09-12T20:09:09.816Z,4.60
2022-09-12T20:11:38.597Z,4.83
2022-09-12T20:14:07.955Z,4.40
2022-09-12T20:16:37.922Z,3.97
2022-09-12T20:19:08.840Z,3.87
2022-09-12T20:21:37.854Z,4.03
2022-09-12T20:24:16.829Z,3.13
2022-09-12T20:26:50.745Z,3.60
2022-09-12T20:29:31.697Z,4.10
2022-09-12T20:32:06.335Z,3.60
2022-09-12T20:34:45.407Z,3.23
2022-09-12T20:37:14.106Z,4.00
2022-09-12T20:42:41.216Z,4.47
2022-09-12T20:45:13.414Z,3.63
2022-09-12T20:47:52.140Z,4.20
2022-09-12T20:50:23.150Z,3.60
2022-09-12T20:52:57.313Z,3.67
2022-09-12T20:55:28.170Z,4.00
2022-09-12T20:58:22.597Z,4.20
2022-09-12T21:01:03.542Z,4.10
2022-09-12T21:03:58.773Z,3.50
2022-09-12T21:09:42.460Z,16.00
2022-09-12T21:12:41.310Z,8.93
2022-09-12T21:15:42.465Z,5.13
2022-09-12T21:21:11.774Z,3.37
2022-09-12T21:27:28.211Z,4.10
2022-09-12T21:33:05.787Z,4.20
2022-09-12T21:35:59.154Z,3.87
2022-09-12T21:38:31.638Z,3.87
2022-09-12T21:44:25.345Z,4.30
2022-09-12T21:46:58.208Z,4.27
2022-09-12T21:49:45.846Z,4.30
2022-09-12T21:52:29.970Z,4.00
2022-09-12T21:55:10.254Z,4.30
2022-09-12T21:57:41.846Z,3.87
2022-09-12T22:00:18.141Z,3.83
2022-09-12T22:03:01.678Z,4.07
2022-09-12T22:09:19.375Z,3.70
2022-09-12T22:12:17.550Z,3.20
2022-09-12T22:15:12.746Z,4.10
2022-09-12T22:18:13.069Z,4.33
2022-09-12T22:21:08.079Z,4.03
2022-09-12T22:23:55.702Z,3.50
2022-09-12T22:29:19.366Z,5.57
2022-09-12T22:31:56.486Z,3.30
2022-09-12T22:34:49.729Z,3.70
2022-09-12T22:37:23.727Z,3.90
2022-09-12T22:42:57.170Z,3.93
2022-09-12T22:45:27.305Z,3.50
2022-09-12T22:48:00.417Z,4.70
2022-09-12T22:50:45.109Z,4.40
2022-09-12T22:53:37.762Z,3.67
2022-09-12T22:59:10.024Z,4.10
2022-09-12T23:01:40.914Z,4.60
2022-09-12T23:04:09.252Z,3.73
2022-09-12T23:06:37.630Z,4.30
2022-09-12T23:09:13.610Z,3.60
2022-09-12T23:11:44.610Z,4.33
2022-09-12T23:14:41.740Z,3.97
2022-09-12T23:17:14.400Z,3.73
2022-09-12T23:19:44.118Z,2.90
2022-09-12T23:22:25.910Z,3.87
2022-09-12T23:25:00.390Z,5.70
2022-09-12T23:27:29.973Z,4.10
2022-09-12T23:30:11.228Z,3.80
2022-09-12T23:32:39.854Z,3.23
2022-09-12T23:35:16.080Z,3.67
2022-09-12T23:37:49.567Z,3.90
2022-09-12T23:40:22.826Z,3.60
2022-09-12T23:42:51.350Z,3.40
2022-09-12T23:45:22.815Z,5.23
2022-09-12T23:47:51.204Z,4.30
2022-09-12T23:56:09.792Z,3.60
2022-09-12T23:58:40.824Z,3.37
